Time;durP1;ratioP1;P1;durP2;ratioP2;P2;SDS_P1;SDS_P2;PMS_P1;PMS_P2;Temp;Humidity;BMP_temperature;BMP_pressure;BME280_temperature;BME280_humidity;BME280_pressure;Samples;Min_cycle;Max_cycle;Signal;HPM_P1;HPM_P2
2021/07/05 00:00:18;;;;;;;4.72;2.85;;;;;;;14.54;100.00;92679.62;1716094;80;21026;-80
2021/07/05 00:02:45;;;;;;;4.90;3.20;;;;;;;14.55;100.00;92676.47;1713100;82;21089;-80
2021/07/05 00:05:12;;;;;;;4.53;3.00;;;;;;;14.59;100.00;92673.60;1749812;80;21013;-80
2021/07/05 00:07:38;;;;;;;5.20;4.22;;;;;;;14.60;100.00;92671.66;1768340;80;21050;-80
2021/07/05 00:10:07;;;;;;;7.53;5.10;;;;;;;14.57;100.00;92671.92;1712513;82;21066;-80
2021/07/05 00:12:35;;;;;;;8.90;5.60;;;;;;;14.59;100.00;92674.97;1712437;83;21071;-80
2021/07/05 00:15:04;;;;;;;7.30;4.90;;;;;;;14.60;100.00;92673.78;1772462;80;21045;-80
2021/07/05 00:17:32;;;;;;;9.25;5.00;;;;;;;14.61;100.00;92666.34;1712329;81;21089;-80
2021/07/05 00:20:01;;;;;;;8.18;4.78;;;;;;;14.66;100.00;92663.04;1713927;82;21604;-80
2021/07/05 00:22:29;;;;;;;7.00;4.50;;;;;;;14.71;100.00;92661.14;1723932;80;21168;-79
2021/07/05 00:24:55;;;;;;;10.13;4.15;;;;;;;14.73;100.00;92656.74;1786855;80;21025;-79
2021/07/05 00:27:23;;;;;;;9.08;5.55;;;;;;;14.73;100.00;92656.74;1717499;80;21319;-80
2021/07/05 00:29:51;;;;;;;7.95;4.08;;;;;;;14.69;100.00;92656.09;1764665;80;21085;-80
2021/07/05 00:32:19;;;;;;;4.20;2.87;;;;;;;14.65;100.00;92658.17;1773899;80;21011;-80
2021/07/05 00:34:46;;;;;;;3.90;3.42;;;;;;;14.68;100.00;92657.30;1748062;80;22238;-80
2021/07/05 00:37:15;;;;;;;5.50;3.27;;;;;;;14.69;100.00;92654.72;1715092;79;21612;-80
2021/07/05 00:39:41;;;;;;;5.37;2.33;;;;;;;14.67;100.00;92649.52;1788821;80;21061;-79
2021/07/05 00:42:07;;;;;;;5.25;2.83;;;;;;;14.64;100.00;92653.92;1764836;80;21273;-79
2021/07/05 00:44:35;;;;;;;2.17;2.02;;;;;;;14.60;100.00;92656.00;1760675;80;21624;-81
2021/07/05 00:47:02;;;;;;;5.35;2.20;;;;;;;14.55;100.00;92657.33;1759381;81;21145;-80
2021/07/05 00:49:29;;;;;;;3.25;1.65;;;;;;;14.53;100.00;92656.22;1759590;80;21035;-80
2021/07/05 00:51:56;;;;;;;2.50;1.85;;;;;;;14.56;100.00;92646.53;1760843;81;21008;-80
2021/07/05 00:54:23;;;;;;;4.92;2.08;;;;;;;14.60;100.00;92646.42;1759707;80;21044;-80
2021/07/05 00:56:50;;;;;;;1.87;1.62;;;;;;;14.65;100.00;92645.86;1730256;80;21046;-81
2021/07/05 00:59:17;;;;;;;3.02;2.10;;;;;;;14.65;100.00;92650.58;1742519;80;21125;-82
2021/07/05 01:01:44;;;;;;;3.00;1.60;;;;;;;14.61;100.00;92641.11;1748245;80;21664;-81
2021/07/05 01:04:10;;;;;;;2.55;1.70;;;;;;;14.63;100.00;92649.66;1760528;81;20987;-81
2021/07/05 01:06:37;;;;;;;1.67;1.57;;;;;;;14.65;100.00;92649.97;1759903;80;21113;-81
2021/07/05 01:09:04;;;;;;;1.85;1.75;;;;;;;14.66;100.00;92641.91;1759471;80;21038;-80
2021/07/05 01:11:31;;;;;;;2.40;1.85;;;;;;;14.64;100.00;92640.84;1737874;81;21160;-81
2021/07/05 01:13:57;;;;;;;2.10;1.65;;;;;;;14.55;100.00;92645.02;1713276;82;21073;-82
2021/07/05 01:16:25;;;;;;;3.08;1.62;;;;;;;14.50;100.00;92638.70;1713065;80;22191;-81
2021/07/05 01:18:53;;;;;;;1.50;1.40;;;;;;;14.44;100.00;92641.81;1786096;80;21009;-81
2021/07/05 01:21:20;;;;;;;3.92;2.77;;;;;;;14.44;100.00;92628.14;1764653;80;21074;-81
2021/07/05 01:23:46;;;;;;;2.02;1.90;;;;;;;14.45;100.00;92630.27;1759211;80;21071;-80
2021/07/05 01:26:13;;;;;;;1.82;1.52;;;;;;;14.45;100.00;92626.16;1744837;80;21298;-81
2021/07/05 01:28:40;;;;;;;1.72;1.62;;;;;;;14.46;100.00;92622.98;1713836;82;21046;-80
2021/07/05 01:31:06;;;;;;;2.55;1.60;;;;;;;14.45;100.00;92621.45;1713289;83;21046;-82
2021/07/05 01:33:33;;;;;;;5.20;4.65;;;;;;;14.43;100.00;92627.95;1776215;79;21085;-82
2021/07/05 01:36:01;;;;;;;7.20;4.90;;;;;;;14.40;100.00;92626.09;1742466;80;21569;-81
2021/07/05 01:38:27;;;;;;;8.18;3.98;;;;;;;14.44;100.00;92624.61;1743748;80;21002;-81
2021/07/05 01:41:01;;;;;;;6.53;3.45;;;;;;;14.44;100.00;92623.25;1785902;80;21253;-81
2021/07/05 01:43:28;;;;;;;3.08;1.95;;;;;;;14.48;100.00;92625.27;1763061;81;21141;-81
2021/07/05 01:45:54;;;;;;;2.72;1.70;;;;;;;14.49;100.00;92634.45;1693306;81;21165;-82
2021/07/05 01:48:22;;;;;;;1.85;1.75;;;;;;;14.39;100.00;92634.14;1714441;82;21369;-82
2021/07/05 01:50:49;;;;;;;1.75;1.65;;;;;;;14.28;100.00;92643.27;1712927;82;21273;-81
2021/07/05 01:53:18;;;;;;;3.15;1.60;;;;;;;14.30;100.00;92643.61;1732033;80;21113;-81
2021/07/05 01:55:44;;;;;;;2.60;1.60;;;;;;;14.37;100.00;92636.56;1784198;80;21085;-82
2021/07/05 01:58:11;;;;;;;2.87;1.92;;;;;;;14.41;100.00;92639.19;1713229;83;21039;-81
2021/07/05 02:00:41;;;;;;;3.77;1.35;;;;;;;14.36;100.00;92641.84;1713495;82;21422;-81
2021/07/05 02:03:07;;;;;;;4.95;2.85;;;;;;;14.29;100.00;92646.16;1758483;80;21555;-83
2021/07/05 02:05:35;;;;;;;4.65;1.87;;;;;;;14.24;100.00;92650.81;1778275;80;21046;-81
2021/07/05 02:08:02;;;;;;;3.37;1.75;;;;;;;14.20;100.00;92646.06;1754341;80;21208;-80
2021/07/05 02:10:32;;;;;;;2.45;2.02;;;;;;;14.20;100.00;92641.36;1714464;83;21446;-81
2021/07/05 02:13:05;;;;;;;3.90;2.00;;;;;;;14.21;100.00;92644.25;1745146;82;21178;-82
2021/07/05 02:15:32;;;;;;;5.22;1.98;;;;;;;14.26;100.00;92644.33;1749003;82;21053;-81
2021/07/05 02:17:59;;;;;;;1.82;1.70;;;;;;;14.25;100.00;92646.87;1763691;79;21022;-82
2021/07/05 02:20:27;;;;;;;1.87;1.70;;;;;;;14.18;100.00;92647.88;1791603;77;21024;-81
2021/07/05 02:22:55;;;;;;;3.35;2.35;;;;;;;14.13;100.00;92649.00;1789980;78;21530;-82
2021/07/05 02:25:29;;;;;;;1.52;1.42;;;;;;;14.11;100.00;92651.42;1752092;81;21854;-82
2021/07/05 02:27:59;;;;;;;1.60;1.50;;;;;;;14.06;100.00;92658.94;1816904;78;21056;-82
2021/07/05 02:30:27;;;;;;;1.42;1.20;;;;;;;14.01;100.00;92656.75;1777941;78;21097;-81
2021/07/05 02:32:55;;;;;;;1.30;1.30;;;;;;;13.98;100.00;92655.48;1764577;80;21062;-80
2021/07/05 02:35:22;;;;;;;1.37;1.27;;;;;;;13.94;100.00;92661.05;1775462;80;21034;-81
2021/07/05 02:37:49;;;;;;;1.60;1.50;;;;;;;13.91;100.00;92658.42;1748559;82;21126;-81
2021/07/05 02:40:19;;;;;;;1.62;1.37;;;;;;;13.89;100.00;92663.57;1772908;80;21156;-80
2021/07/05 02:42:46;;;;;;;3.62;1.60;;;;;;;13.85;100.00;92663.67;1814768;78;20992;-80
2021/07/05 02:45:22;;;;;;;1.87;1.77;;;;;;;13.84;100.00;92660.17;1786207;78;21074;-81
2021/07/05 02:47:59;;;;;;;1.80;1.30;;;;;;;13.90;100.00;92671.32;1762281;80;21069;-80
2021/07/05 02:50:26;;;;;;;3.00;1.92;;;;;;;13.95;100.00;92663.19;1774659;80;21112;-81
2021/07/05 02:52:54;;;;;;;1.67;1.57;;;;;;;14.01;100.00;92671.02;1735300;82;21549;-81
2021/07/05 02:55:21;;;;;;;3.27;1.45;;;;;;;14.07;100.00;92675.52;1771180;80;21094;-81
2021/07/05 02:57:47;;;;;;;1.92;1.67;;;;;;;14.17;100.00;92672.30;1727061;80;21067;-81
2021/07/05 03:00:28;;;;;;;1.72;1.55;;;;;;;14.18;100.00;92669.75;1734920;80;21050;-82
2021/07/05 03:02:54;;;;;;;6.00;1.57;;;;;;;14.16;100.00;92665.91;1743587;80;21116;-81
2021/07/05 03:05:23;;;;;;;5.58;1.70;;;;;;;14.14;100.00;92666.36;1665847;81;21538;-81
2021/07/05 03:07:51;;;;;;;1.67;1.57;;;;;;;14.13;100.00;92664.04;1801273;79;21038;-82
2021/07/05 03:10:22;;;;;;;2.00;1.22;;;;;;;14.12;100.00;92673.45;1759775;79;21081;-81
2021/07/05 03:12:49;;;;;;;2.47;1.37;;;;;;;14.13;100.00;92677.10;1818611;77;21006;-80
2021/07/05 03:15:15;;;;;;;1.35;1.25;;;;;;;14.14;100.00;92681.97;1798380;77;21087;-81
2021/07/05 03:17:42;;;;;;;2.33;1.57;;;;;;;14.10;100.00;92683.44;1755695;80;21608;-81
2021/07/05 03:20:12;;;;;;;1.50;1.40;;;;;;;14.07;100.00;92685.70;1768701;80;21031;-82
2021/07/05 03:22:38;;;;;;;2.30;1.30;;;;;;;14.06;100.00;92691.73;1768043;81;21613;-81
2021/07/05 03:25:08;;;;;;;1.57;1.47;;;;;;;14.11;100.00;92690.45;1767605;80;21047;-81
2021/07/05 03:27:35;;;;;;;2.58;1.80;;;;;;;14.19;100.00;92689.05;1736373;81;21113;-80
2021/07/05 03:30:01;;;;;;;4.20;1.62;;;;;;;14.23;100.00;92693.80;1739374;80;21033;-81
2021/07/05 03:32:27;;;;;;;1.57;1.47;;;;;;;14.25;100.00;92691.38;1784585;80;21105;-82
2021/07/05 03:34:54;;;;;;;3.37;1.67;;;;;;;14.26;100.00;92690.81;1759877;80;21019;-81
2021/07/05 03:37:20;;;;;;;2.00;1.50;;;;;;;14.31;100.00;92688.89;1759915;80;21051;-81
2021/07/05 03:39:46;;;;;;;2.67;1.72;;;;;;;14.35;100.00;92688.18;1730033;80;21067;-81
2021/07/05 03:42:13;;;;;;;1.85;1.65;;;;;;;14.37;100.00;92684.42;1713758;83;21042;-81
2021/07/05 03:44:39;;;;;;;1.57;1.47;;;;;;;14.36;100.00;92677.40;1725795;80;21102;-82
2021/07/05 03:47:06;;;;;;;3.52;1.77;;;;;;;14.36;100.00;92684.84;1789109;80;21005;-80
2021/07/05 03:49:32;;;;;;;2.40;1.72;;;;;;;14.34;100.00;92684.69;1763993;80;21056;-80
2021/07/05 03:51:58;;;;;;;1.90;1.80;;;;;;;14.32;100.00;92691.17;1761626;81;21127;-80
2021/07/05 03:54:25;;;;;;;2.90;2.70;;;;;;;14.34;100.00;92691.52;1739420;80;21043;-81
2021/07/05 03:56:52;;;;;;;4.47;2.00;;;;;;;14.42;100.00;92703.02;1712899;82;21079;-81
2021/07/05 03:59:19;;;;;;;4.40;2.30;;;;;;;14.48;100.00;92697.75;1712767;83;21121;-81
2021/07/05 04:01:45;;;;;;;4.03;2.10;;;;;;;14.50;100.00;92685.81;1712695;82;21137;-80
2021/07/05 04:04:12;;;;;;;5.97;2.70;;;;;;;14.56;100.00;92695.02;1769936;80;21476;-80
2021/07/05 04:06:38;;;;;;;2.87;2.37;;;;;;;14.59;100.00;92695.48;1773128;80;21035;-81
2021/07/05 04:09:06;;;;;;;6.40;3.37;;;;;;;14.66;100.00;92695.88;1759430;80;21447;-81
2021/07/05 04:11:33;;;;;;;2.92;2.65;;;;;;;14.70;100.00;92694.55;1759527;80;21031;-81
2021/07/05 04:13:59;;;;;;;3.75;2.40;;;;;;;14.68;100.00;92690.74;1759018;81;21086;-82
2021/07/05 04:16:26;;;;;;;3.27;2.47;;;;;;;14.64;100.00;92690.85;1758425;80;21090;-81
2021/07/05 04:18:53;;;;;;;4.15;2.98;;;;;;;14.60;100.00;92684.73;1758668;80;21047;-82
2021/07/05 04:21:21;;;;;;;2.20;2.10;;;;;;;14.57;100.00;92687.73;1742627;81;21110;-81
2021/07/05 04:23:48;;;;;;;3.30;3.00;;;;;;;14.62;100.00;92689.14;1713281;83;21550;-82
2021/07/05 04:26:16;;;;;;;5.00;2.67;;;;;;;14.65;100.00;92687.52;1713122;83;21073;-81
2021/07/05 04:28:43;;;;;;;2.90;2.70;;;;;;;14.70;100.00;92691.82;1775582;80;21037;-81
2021/07/05 04:31:09;;;;;;;2.60;2.40;;;;;;;14.74;100.00;92687.03;1727622;80;21046;-81
2021/07/05 04:33:36;;;;;;;1.98;1.82;;;;;;;14.75;100.00;92687.19;1712859;82;21062;-81
2021/07/05 04:36:03;;;;;;;2.40;2.20;;;;;;;14.71;100.00;92688.50;1728051;80;21571;-82
2021/07/05 04:38:30;;;;;;;4.80;2.60;;;;;;;14.63;100.00;92692.06;1787124;80;21057;-82
2021/07/05 04:41:02;;;;;;;3.08;2.60;;;;;;;14.62;100.00;92690.52;1715000;80;21177;-81
2021/07/05 04:43:24;;;;;;;4.03;2.83;;;;;;;14.63;100.00;92694.01;1712987;82;21070;-81
2021/07/05 04:45:54;;;;;;;5.12;3.33;;;;;;;14.67;100.00;92689.98;1750528;79;21026;-81
2021/07/05 04:48:21;;;;;;;5.97;4.40;;;;;;;14.73;100.00;92688.81;1778543;80;21062;-81
2021/07/05 04:50:48;;;;;;;7.90;4.95;;;;;;;14.75;100.00;92685.05;1759675;81;20976;-81
2021/07/05 04:53:14;;;;;;;6.78;4.22;;;;;;;14.75;100.00;92680.95;1760200;81;21114;-82
2021/07/05 04:55:42;;;;;;;5.47;4.75;;;;;;;14.80;100.00;92681.75;1759844;80;20948;-81
2021/07/05 04:58:08;;;;;;;7.87;4.95;;;;;;;14.82;100.00;92677.98;1731588;81;21098;-81
2021/07/05 05:00:35;;;;;;;5.12;3.72;;;;;;;14.81;100.00;92681.30;1712961;83;21046;-81
2021/07/05 05:03:04;;;;;;;2.65;2.27;;;;;;;14.80;100.00;92679.02;1722337;80;21054;-82
2021/07/05 05:05:31;;;;;;;2.85;2.08;;;;;;;14.74;100.00;92688.97;1781366;80;22343;-81
2021/07/05 05:07:58;;;;;;;2.17;1.98;;;;;;;14.66;100.00;92684.93;1717795;80;21085;-80
2021/07/05 05:10:26;;;;;;;3.22;1.92;;;;;;;14.60;100.00;92686.70;1702381;80;21062;-81
2021/07/05 05:12:53;;;;;;;4.28;1.98;;;;;;;14.54;100.00;92682.36;1743621;80;21053;-81
2021/07/05 05:15:20;;;;;;;3.87;3.10;;;;;;;14.56;100.00;92687.57;1809299;78;21300;-81
2021/07/05 05:17:48;;;;;;;;;;;;;;;;;;;;;
2021/07/05 05:20:19;;;;;;;3.45;3.17;;;;;;;14.73;100.00;92690.95;1775275;80;21030;-81
2021/07/05 05:22:47;;;;;;;4.35;3.60;;;;;;;14.77;100.00;92674.42;1822879;77;21556;-81
2021/07/05 05:25:14;;;;;;;4.25;3.85;;;;;;;14.81;100.00;92689.52;1793165;77;21034;-82
2021/07/05 05:27:40;;;;;;;4.00;3.60;;;;;;;14.87;100.00;92684.27;1742669;80;21087;-83
2021/07/05 05:30:09;;;;;;;3.47;3.22;;;;;;;14.90;100.00;92684.00;1748507;79;21069;-82
2021/07/05 05:32:36;;;;;;;3.62;3.27;;;;;;;14.94;100.00;92682.67;1835947;77;21529;-82
2021/07/05 05:35:04;;;;;;;4.00;2.87;;;;;;;15.01;100.00;92686.55;1794863;77;21041;-82
2021/07/05 05:37:31;;;;;;;3.15;2.95;;;;;;;15.07;100.00;92686.75;1758324;80;21106;-82
2021/07/05 05:39:57;;;;;;;3.60;3.30;;;;;;;15.09;100.00;92687.69;1744738;82;21117;-81
2021/07/05 05:42:23;;;;;;;3.60;3.30;;;;;;;15.13;100.00;92695.19;1768600;77;21125;-81
2021/07/05 05:44:50;;;;;;;4.62;3.35;;;;;;;15.21;100.00;92689.02;1839946;77;21046;-81
2021/07/05 05:47:16;;;;;;;4.37;4.00;;;;;;;15.28;100.00;92681.94;1751803;78;21077;-80
2021/07/05 05:49:43;;;;;;;4.53;3.98;;;;;;;15.33;100.00;92682.59;1766096;80;21567;-81
2021/07/05 05:52:09;;;;;;;4.85;4.05;;;;;;;15.35;100.00;92681.55;1771767;78;21074;-81
2021/07/05 05:54:36;;;;;;;9.38;4.30;;;;;;;15.35;100.00;92678.81;1824461;78;21179;-81
2021/07/05 05:57:03;;;;;;;5.22;4.37;;;;;;;15.36;100.00;92683.08;1814304;79;21101;-80
2021/07/05 05:59:32;;;;;;;4.55;4.15;;;;;;;15.37;100.00;92684.59;1783516;80;21093;-80
2021/07/05 06:01:58;;;;;;;6.05;3.70;;;;;;;15.37;100.00;92681.25;1823249;77;21101;-82
2021/07/05 06:04:26;;;;;;;6.33;4.70;;;;;;;15.40;100.00;92680.98;1812275;78;21084;-80
2021/07/05 06:06:54;;;;;;;4.60;4.17;;;;;;;15.48;100.00;92678.16;1777711;78;21082;-80
2021/07/05 06:09:21;;;;;;;6.05;4.28;;;;;;;15.57;100.00;92688.41;1757584;80;21038;-80
2021/07/05 06:11:48;;;;;;;4.40;3.37;;;;;;;15.62;100.00;92685.13;1755072;81;21038;-80
2021/07/05 06:14:16;;;;;;;4.08;3.67;;;;;;;15.66;100.00;92691.27;1739904;80;21042;-80
2021/07/05 06:16:44;;;;;;;4.08;3.72;;;;;;;15.67;100.00;92684.58;1747216;79;21038;-82
2021/07/05 06:19:11;;;;;;;3.42;3.12;;;;;;;15.68;100.00;92683.36;1746416;80;21176;-80
2021/07/05 06:21:38;;;;;;;6.33;3.45;;;;;;;15.72;100.00;92689.48;1758405;80;21073;-80
2021/07/05 06:24:06;;;;;;;3.20;2.90;;;;;;;15.76;100.00;92686.03;1733431;81;21074;-81
2021/07/05 06:26:32;;;;;;;3.85;3.47;;;;;;;15.83;100.00;92691.23;1754293;80;21197;-81
2021/07/05 06:28:59;;;;;;;4.80;3.67;;;;;;;15.90;100.00;92691.59;1756997;77;21031;-80
2021/07/05 06:31:25;;;;;;;3.60;3.30;;;;;;;15.94;100.00;92691.62;1787724;77;21092;-80
2021/07/05 06:33:52;;;;;;;3.50;3.20;;;;;;;16.01;100.00;92695.48;1765703;79;21020;-80
2021/07/05 06:36:19;;;;;;;2.95;2.75;;;;;;;16.08;100.00;92687.61;1780415;78;21529;-79
2021/07/05 06:38:47;;;;;;;3.58;3.27;;;;;;;16.15;100.00;92693.45;1769055;80;21073;-80
2021/07/05 06:41:14;;;;;;;3.12;2.92;;;;;;;16.18;100.00;92685.09;1785465;78;21046;-80
2021/07/05 06:43:41;;;;;;;2.85;2.65;;;;;;;16.20;100.00;92690.11;1780030;80;22183;-80
2021/07/05 06:46:09;;;;;;;2.50;2.30;;;;;;;16.21;100.00;92691.05;1781086;79;21033;-81
2021/07/05 06:48:41;;;;;;;4.20;2.60;;;;;;;16.21;100.00;92692.42;1776089;78;21057;-80
2021/07/05 06:51:07;;;;;;;3.25;2.30;;;;;;;16.21;99.54;92702.61;1766254;80;21118;-80
2021/07/05 06:53:34;;;;;;;2.80;2.60;;;;;;;16.22;99.15;92688.46;1782103;79;21132;-82
2021/07/05 06:56:00;;;;;;;3.33;3.05;;;;;;;16.23;98.99;92698.83;1786149;78;21120;-81
2021/07/05 06:58:27;;;;;;;3.33;3.02;;;;;;;16.24;98.49;92698.36;1775602;78;21030;-84
2021/07/05 07:00:53;;;;;;;3.00;2.80;;;;;;;16.25;98.59;92698.54;1792169;78;21050;-81
2021/07/05 07:03:22;;;;;;;3.47;2.83;;;;;;;16.31;97.64;92692.47;1779949;79;21093;-80
2021/07/05 07:05:50;;;;;;;4.47;3.17;;;;;;;16.36;97.54;92694.03;1782938;79;21059;-81
2021/07/05 07:08:17;;;;;;;3.30;3.10;;;;;;;16.43;97.74;92688.86;1779771;80;21083;-80
2021/07/05 07:10:44;;;;;;;4.28;3.30;;;;;;;16.49;96.98;92691.19;1824093;76;37430;-83
2021/07/05 07:13:11;;;;;;;5.75;3.15;;;;;;;16.58;95.78;92689.84;1846646;75;21086;-82
2021/07/05 07:15:39;;;;;;;3.80;3.37;;;;;;;16.65;95.36;92683.33;1829817;76;21368;-83
2021/07/05 07:20:37;;;;;;;4.25;3.85;;;;;;;16.76;94.38;92685.08;1790764;77;21097;-81
2021/07/05 07:23:03;;;;;;;4.05;3.70;;;;;;;16.82;94.89;92678.41;1760947;80;21042;-80
2021/07/05 07:25:30;;;;;;;4.83;4.30;;;;;;;16.88;94.24;92680.69;1775202;78;21262;-80
2021/07/05 07:27:56;;;;;;;4.40;4.00;;;;;;;16.92;94.75;92679.33;1771493;80;21140;-80
2021/07/05 07:30:23;;;;;;;4.53;4.08;;;;;;;16.99;94.41;92682.41;1766490;80;21010;-79
2021/07/05 07:32:50;;;;;;;3.83;3.25;;;;;;;17.05;93.45;92682.59;1860644;75;21750;-80
2021/07/05 07:35:18;;;;;;;4.85;3.67;;;;;;;17.08;92.60;92683.82;1805197;77;22097;-80
2021/07/05 07:37:47;;;;;;;5.78;3.67;;;;;;;17.12;92.12;92680.93;1819517;75;21025;-80
2021/07/05 07:40:29;;;;;;;4.15;3.75;;;;;;;17.17;92.24;92681.70;1853100;75;21061;-79
2021/07/05 07:42:53;;;;;;;4.40;4.00;;;;;;;17.24;92.23;92683.54;1788369;78;21093;-80
2021/07/05 07:45:20;;;;;;;4.05;3.65;;;;;;;17.31;91.33;92687.98;1799919;79;21189;-80
2021/07/05 07:47:47;;;;;;;4.78;4.12;;;;;;;17.39;91.56;92688.45;1852284;75;21080;-81
2021/07/05 07:50:19;;;;;;;9.83;8.65;;;;;;;17.43;90.53;92684.33;1755786;77;21113;-80
2021/07/05 07:52:46;;;;;;;6.70;4.97;;;;;;;17.50;90.67;92691.52;1791350;79;20953;-80
2021/07/05 07:55:14;;;;;;;5.53;5.03;;;;;;;17.55;90.02;92690.91;1805921;79;21603;-80
2021/07/05 07:57:41;;;;;;;5.30;4.83;;;;;;;17.62;89.40;92685.72;1807541;77;21106;-81
2021/07/05 08:00:10;;;;;;;6.80;5.35;;;;;;;17.68;89.26;92691.54;1799464;79;21842;-80
2021/07/05 08:02:39;;;;;;;6.62;4.83;;;;;;;17.75;88.47;92691.85;1842536;76;21809;-79
2021/07/05 08:05:08;;;;;;;6.12;4.45;;;;;;;17.81;87.01;92690.64;1833400;76;21092;-80
2021/07/05 08:07:40;;;;;;;6.20;5.12;;;;;;;17.84;85.91;92689.12;1795436;78;21072;-80
2021/07/05 08:10:05;;;;;;;9.80;5.05;;;;;;;17.88;86.88;92693.09;1835749;76;21134;-79
2021/07/05 08:12:31;;;;;;;5.33;4.85;;;;;;;17.87;86.78;92698.45;1833591;77;21144;-78
2021/07/05 08:14:59;;;;;;;5.58;4.90;;;;;;;17.85;85.93;92692.63;1824412;78;21052;-79
2021/07/05 08:17:26;;;;;;;9.90;5.55;;;;;;;17.83;85.47;92694.47;1818247;77;21314;-78
2021/07/05 08:19:54;;;;;;;5.25;4.85;;;;;;;17.83;86.18;92700.59;1789177;79;21018;-79
2021/07/05 08:22:21;;;;;;;9.58;7.97;;;;;;;17.83;86.33;92694.47;1757419;79;21111;-79
2021/07/05 08:24:51;;;;;;;10.28;8.55;;;;;;;17.87;86.29;92695.08;1689099;82;21636;-80
2021/07/05 08:27:18;;;;;;;6.92;6.33;;;;;;;17.94;86.52;92689.86;1767201;79;21135;-79
2021/07/05 08:29:46;;;;;;;7.37;5.70;;;;;;;17.96;86.17;92685.44;1789594;78;21053;-80
2021/07/05 08:32:13;;;;;;;6.87;5.70;;;;;;;17.99;86.31;92685.75;1751598;79;21037;-79
2021/07/05 08:34:40;;;;;;;8.53;7.62;;;;;;;18.04;86.19;92689.25;1790487;77;21265;-79
2021/07/05 08:37:07;;;;;;;8.08;7.28;;;;;;;18.09;86.13;92685.29;1783013;78;21057;-79
2021/07/05 08:39:34;;;;;;;6.42;5.83;;;;;;;18.12;85.57;92687.09;1780660;80;20983;-80
2021/07/05 08:42:00;;;;;;;15.50;7.97;;;;;;;18.17;85.18;92689.25;1781532;78;21069;-81
2021/07/05 08:44:30;;;;;;;9.83;5.85;;;;;;;18.20;85.44;92692.45;1755571;79;21078;-79
2021/07/05 08:46:57;;;;;;;6.35;5.12;;;;;;;18.24;84.42;92688.76;1807524;77;21729;-79
2021/07/05 08:49:24;;;;;;;9.03;5.47;;;;;;;18.24;82.61;92685.42;1815477;78;21973;-78
2021/07/05 08:51:56;;;;;;;8.88;6.45;;;;;;;18.25;82.37;92686.18;1811684;77;21064;-78
2021/07/05 08:54:23;;;;;;;5.00;4.60;;;;;;;18.25;82.65;92692.44;1782771;79;21098;-79
2021/07/05 08:56:49;;;;;;;8.85;6.30;;;;;;;18.29;82.10;92687.54;1780910;79;21037;-80
2021/07/05 08:59:19;;;;;;;8.35;5.42;;;;;;;18.33;82.78;92684.63;1812518;76;21124;-78
2021/07/05 09:01:48;;;;;;;7.03;4.97;;;;;;;18.37;83.25;92683.85;1781871;77;21077;-79
2021/07/05 09:04:19;;;;;;;8.13;6.53;;;;;;;18.42;83.27;92678.47;1804562;78;21057;-79
2021/07/05 09:07:07;;;;;;;7.60;6.05;;;;;;;18.49;80.57;92684.89;1778095;80;21053;-83
2021/07/05 09:09:39;;;;;;;6.70;5.58;;;;;;;18.51;80.58;92681.08;1746981;79;21062;-81
2021/07/05 09:12:08;;;;;;;5.12;4.60;;;;;;;18.56;80.80;92678.44;1788805;76;22218;-80
2021/07/05 09:14:38;;;;;;;5.55;5.05;;;;;;;18.60;79.63;92683.78;1784662;76;21056;-81
2021/07/05 09:17:11;;;;;;;5.95;5.40;;;;;;;18.59;78.22;92684.41;1760812;79;21045;-80
2021/07/05 09:19:40;;;;;;;5.85;5.30;;;;;;;18.59;78.83;92687.16;1777676;79;21398;-77
2021/07/05 09:22:09;;;;;;;5.85;4.72;;;;;;;18.62;79.36;92690.98;1746674;80;22025;-81
2021/07/05 09:24:42;;;;;;;5.20;4.70;;;;;;;18.63;78.96;92691.88;1735918;79;21741;-79
2021/07/05 09:27:35;;;;;;;5.40;4.90;;;;;;;18.65;79.58;92692.78;1777399;78;21034;-81
2021/07/05 09:30:07;;;;;;;10.60;9.50;;;;;;;18.63;79.77;92682.25;1750564;79;21062;-79
2021/07/05 09:32:35;;;;;;;6.97;5.72;;;;;;;18.66;81.33;92684.70;1764223;77;21067;-82
2021/07/05 09:35:13;;;;;;;12.10;7.50;;;;;;;18.67;80.31;92686.97;1784164;77;21090;-80
2021/07/05 09:37:52;;;;;;;139.57;29.98;;;;;;;18.71;81.18;92684.70;1770874;79;21248;-80
2021/07/05 09:42:50;;;;;;;6.37;5.55;;;;;;;18.81;80.83;92685.58;1770768;79;21015;-80
2021/07/05 09:45:33;;;;;;;6.22;4.97;;;;;;;18.88;79.44;92678.95;1780999;79;20968;-79
2021/07/05 09:48:19;;;;;;;8.28;5.28;;;;;;;18.93;77.59;92679.72;1758392;79;21058;-80
2021/07/05 09:50:49;;;;;;;5.05;4.65;;;;;;;18.98;78.22;92681.06;1759967;79;21158;-81
2021/07/05 09:53:36;;;;;;;8.23;4.62;;;;;;;19.03;79.42;92684.55;1769163;77;21027;-81
2021/07/05 09:56:29;;;;;;;4.33;3.62;;;;;;;19.09;80.21;92686.83;1748697;81;21322;-81
2021/07/05 09:59:04;;;;;;;4.67;4.20;;;;;;;19.17;80.93;92677.74;1776481;79;21081;-80
2021/07/05 10:01:46;;;;;;;4.20;3.80;;;;;;;19.28;79.29;92679.22;1798164;78;21133;-80
2021/07/05 10:07:03;;;;;;;3.98;3.45;;;;;;;19.40;76.92;92682.36;1822299;78;21030;-77
2021/07/05 10:09:40;;;;;;;4.62;4.10;;;;;;;19.44;76.10;92675.29;1780895;77;21116;-77
2021/07/05 10:12:30;;;;;;;4.33;3.92;;;;;;;19.46;74.57;92672.84;1791503;77;21041;-78
2021/07/05 10:15:08;;;;;;;4.10;3.57;;;;;;;19.47;74.95;92668.22;1801637;77;21072;-79
2021/07/05 10:17:42;;;;;;;4.20;3.80;;;;;;;19.45;74.56;92669.94;1791837;78;21109;-77
2021/07/05 10:20:14;;;;;;;4.37;3.98;;;;;;;19.41;72.08;92679.15;1765029;77;21029;-80
2021/07/05 10:22:42;;;;;;;6.35;5.17;;;;;;;19.39;71.00;92683.59;1836582;76;21077;-81
2021/07/05 10:25:09;;;;;;;4.80;4.40;;;;;;;19.37;72.17;92684.08;1760592;78;21135;-79
2021/07/05 10:27:36;;;;;;;4.95;4.55;;;;;;;19.39;72.52;92686.35;1791014;78;21631;-78
2021/07/05 10:30:06;;;;;;;4.92;3.87;;;;;;;19.41;73.26;92679.15;1842211;75;21263;-79
2021/07/05 10:32:33;;;;;;;4.15;3.77;;;;;;;19.46;75.39;92672.84;1836051;75;20963;-79
2021/07/05 10:34:59;;;;;;;4.37;3.95;;;;;;;19.53;74.66;92675.25;1793416;77;21715;-78
2021/07/05 10:37:37;;;;;;;4.92;4.20;;;;;;;19.59;75.57;92674.11;1842410;77;21046;-79
2021/07/05 10:40:06;;;;;;;4.67;4.20;;;;;;;19.63;75.06;92680.26;1753290;78;21121;-80
2021/07/05 10:42:39;;;;;;;6.12;5.53;;;;;;;19.66;73.91;92681.30;1818061;77;22197;-81
2021/07/05 10:45:10;;;;;;;4.55;4.15;;;;;;;19.62;72.20;92687.61;1813168;77;21034;-79
2021/07/05 10:47:45;;;;;;;4.58;4.17;;;;;;;19.60;70.62;92679.03;1809674;77;21073;-78
2021/07/05 10:50:44;;;;;;;5.12;4.10;;;;;;;19.59;72.07;92682.38;1800173;77;21091;-77
2021/07/05 10:53:16;;;;;;;4.78;3.92;;;;;;;19.56;73.01;92677.06;1750689;80;21042;-79
2021/07/05 10:55:46;;;;;;;7.00;4.40;;;;;;;19.54;73.70;92676.14;1741556;81;21842;-78
2021/07/05 10:58:20;;;;;;;4.87;4.45;;;;;;;19.58;73.85;92682.23;1755546;79;21324;-79
2021/07/05 11:00:51;;;;;;;6.30;5.23;;;;;;;19.63;72.90;92684.39;1843858;75;21026;-79
2021/07/05 11:03:40;;;;;;;6.10;4.05;;;;;;;19.69;74.55;92679.59;1795729;76;22295;-81
2021/07/05 11:06:10;;;;;;;4.90;4.50;;;;;;;19.75;74.21;92677.10;1782674;79;21076;-79
2021/07/05 11:08:51;;;;;;;4.87;4.08;;;;;;;19.79;74.38;92679.06;1782358;79;21125;-78
2021/07/05 11:11:31;;;;;;;4.45;4.05;;;;;;;19.82;74.52;92675.37;1759837;78;21672;-76
2021/07/05 11:14:21;;;;;;;6.12;4.10;;;;;;;19.83;74.40;92678.27;1781935;79;20959;-78
2021/07/05 11:16:53;;;;;;;11.15;8.48;;;;;;;19.88;74.69;92679.59;1835524;76;20960;-77
2021/07/05 11:19:47;;;;;;;5.30;4.80;;;;;;;19.91;75.21;92680.66;1811407;77;21344;-78
2021/07/05 11:22:33;;;;;;;5.20;4.80;;;;;;;19.93;75.48;92676.17;1837582;77;21091;-78
2021/07/05 11:25:23;;;;;;;5.45;4.83;;;;;;;19.99;74.67;92681.81;1812503;77;20963;-79
2021/07/05 11:27:56;;;;;;;4.60;4.20;;;;;;;20.04;74.44;92681.91;1806011;77;21314;-78
2021/07/05 11:30:30;;;;;;;4.12;3.72;;;;;;;20.08;72.76;92681.12;1789576;77;21010;-81
2021/07/05 11:33:17;;;;;;;4.12;3.72;;;;;;;20.08;69.66;92683.89;1770648;78;21610;-81
2021/07/05 11:35:49;;;;;;;4.97;4.45;;;;;;;20.06;69.04;92689.72;1770179;78;21113;-80
2021/07/05 11:38:32;;;;;;;5.80;4.12;;;;;;;20.08;70.32;92687.23;1746582;80;21097;-79
2021/07/05 11:41:02;;;;;;;4.37;3.98;;;;;;;20.10;69.50;92682.02;1771182;79;21027;-82
2021/07/05 11:46:35;;;;;;;5.78;3.95;;;;;;;20.13;70.36;92679.08;1751258;79;21379;-81
2021/07/05 11:49:20;;;;;;;4.60;3.87;;;;;;;20.26;72.80;92678.03;1745408;80;21724;-81